createdAt,value
2022-12-04T00:01:40.386Z,104.30
2022-12-04T00:04:23.190Z,110.30
2022-12-04T00:09:48.575Z,90.60
2022-12-04T00:12:31.336Z,95.60
2022-12-04T00:18:08.221Z,91.40
2022-12-04T00:20:51.618Z,91.20
2022-12-04T00:23:35.588Z,90.00
2022-12-04T00:26:21.470Z,97.80
2022-12-04T00:29:05.324Z,95.70
2022-12-04T00:31:48.648Z,97.00
2022-12-04T00:34:32.639Z,88.30
2022-12-04T00:37:15.497Z,93.00
2022-12-04T00:42:40.948Z,97.60
2022-12-04T00:45:23.804Z,91.90
2022-12-04T00:50:50.947Z,89.80
2022-12-04T00:53:36.690Z,92.30
2022-12-04T00:56:25.166Z,87.70
2022-12-04T00:59:08.294Z,92.00
2022-12-04T01:04:33.714Z,87.50
2022-12-04T01:07:17.541Z,91.40
2022-12-04T01:10:00.351Z,97.10
2022-12-04T01:15:25.793Z,83.90
2022-12-04T01:18:08.685Z,89.70
2022-12-04T01:26:17.597Z,88.60
2022-12-04T01:31:43.298Z,98.80
2022-12-04T01:34:26.483Z,98.60
2022-12-04T01:37:09.313Z,94.60
2022-12-04T01:42:35.123Z,93.30
2022-12-04T01:45:51.654Z,94.20
2022-12-04T01:48:38.629Z,92.90
2022-12-04T01:51:30.743Z,91.60
2022-12-04T01:54:22.684Z,92.80
2022-12-04T01:57:14.247Z,89.90
2022-12-04T02:00:04.837Z,89.60
2022-12-04T02:02:48.734Z,89.20
2022-12-04T02:05:31.734Z,95.60
2022-12-04T02:08:14.712Z,90.30
2022-12-04T02:11:16.062Z,87.40
2022-12-04T02:14:36.131Z,92.60
2022-12-04T02:17:28.416Z,104.60
2022-12-04T02:20:45.887Z,92.00
2022-12-04T02:23:53.942Z,95.30
2022-12-04T02:26:48.889Z,96.10
2022-12-04T02:29:51.259Z,91.40
2022-12-04T02:33:00.575Z,94.10
2022-12-04T02:36:00.205Z,100.40
2022-12-04T02:38:55.776Z,91.80
2022-12-04T02:41:45.337Z,98.30
2022-12-04T02:44:35.434Z,88.70
2022-12-04T02:47:22.568Z,99.40
2022-12-04T02:50:10.276Z,97.20
2022-12-04T02:53:03.329Z,86.00
2022-12-04T02:58:41.077Z,87.20
2022-12-04T03:01:35.081Z,86.70
2022-12-04T03:04:22.052Z,86.90
2022-12-04T03:07:15.052Z,93.60
2022-12-04T03:13:15.968Z,92.40
2022-12-04T03:16:06.095Z,96.00
2022-12-04T03:18:57.156Z,96.70
2022-12-04T03:21:46.779Z,84.90
2022-12-04T03:24:34.309Z,94.00
2022-12-04T03:28:01.676Z,89.50
2022-12-04T03:30:51.018Z,96.70
2022-12-04T03:33:43.420Z,91.70
2022-12-04T03:36:31.702Z,90.50
2022-12-04T03:39:35.794Z,85.00
2022-12-04T03:42:24.036Z,88.60
2022-12-04T03:45:16.888Z,77.50
2022-12-04T03:48:22.977Z,94.00
2022-12-04T03:51:15.597Z,84.20
2022-12-04T03:54:11.732Z,72.00
2022-12-04T03:57:10.692Z,83.60
2022-12-04T04:00:02.581Z,84.10
2022-12-04T04:02:57.829Z,78.00
2022-12-04T04:05:46.124Z,84.90
2022-12-04T04:08:35.175Z,83.50
2022-12-04T04:11:23.509Z,92.10
2022-12-04T04:14:40.196Z,87.00
2022-12-04T04:17:47.465Z,94.10
2022-12-04T04:21:03.460Z,92.40
2022-12-04T04:24:09.796Z,83.40
2022-12-04T04:26:59.255Z,95.20
2022-12-04T04:29:47.955Z,86.00
2022-12-04T04:32:41.254Z,92.70
2022-12-04T04:35:24.159Z,87.30
2022-12-04T04:38:31.919Z,87.10
2022-12-04T04:41:33.787Z,90.60
2022-12-04T04:44:41.261Z,90.80
2022-12-04T04:47:52.983Z,90.50
2022-12-04T04:50:37.640Z,99.00
2022-12-04T04:53:27.054Z,92.40
2022-12-04T04:56:10.427Z,92.10
2022-12-04T04:58:53.195Z,90.70
2022-12-04T05:01:38.413Z,91.30
2022-12-04T05:04:21.266Z,88.40
2022-12-04T05:09:48.849Z,82.30
2022-12-04T05:15:14.480Z,85.40
2022-12-04T05:17:57.300Z,86.00
2022-12-04T05:26:06.601Z,80.70
2022-12-04T05:31:32.219Z,77.00
2022-12-04T05:34:15.011Z,81.20
2022-12-04T05:39:40.544Z,78.20
2022-12-04T05:42:23.323Z,91.30
2022-12-04T05:45:06.684Z,81.10
2022-12-04T05:47:50.062Z,73.80
2022-12-04T05:50:32.861Z,77.50
2022-12-04T05:56:01.203Z,81.90
2022-12-04T05:58:44.017Z,81.80
2022-12-04T06:01:26.880Z,71.80
2022-12-04T06:06:54.589Z,77.90
2022-12-04T06:09:38.258Z,78.30
2022-12-04T06:12:21.040Z,76.80
2022-12-04T06:17:47.003Z,80.10
2022-12-04T06:23:12.546Z,77.10
2022-12-04T06:28:39.498Z,73.30
2022-12-04T06:31:22.871Z,77.40
2022-12-04T06:34:06.697Z,78.40
2022-12-04T06:36:49.492Z,77.80
2022-12-04T06:42:15.067Z,75.80
2022-12-04T06:47:40.716Z,69.40
2022-12-04T06:53:08.499Z,73.70
2022-12-04T06:55:53.594Z,75.90
2022-12-04T06:58:37.037Z,74.70
2022-12-04T07:01:25.661Z,73.50
2022-12-04T07:04:08.656Z,69.60
2022-12-04T07:06:51.620Z,71.90
2022-12-04T07:09:34.357Z,67.80
2022-12-04T07:12:17.285Z,66.00
2022-12-04T07:17:42.715Z,64.20
2022-12-04T07:20:27.987Z,65.10
2022-12-04T07:23:10.888Z,69.80
2022-12-04T07:25:53.702Z,74.60
2022-12-04T07:34:03.471Z,59.40
2022-12-04T07:39:29.500Z,71.90
2022-12-04T07:42:12.331Z,60.70
2022-12-04T07:47:39.827Z,66.80
2022-12-04T07:53:05.368Z,63.60
2022-12-04T07:55:52.369Z,64.10
2022-12-04T07:58:35.534Z,68.40
2022-12-04T08:01:21.885Z,63.40
2022-12-04T08:04:04.897Z,69.70
2022-12-04T08:06:48.852Z,63.90
2022-12-04T08:09:32.582Z,71.80
2022-12-04T08:12:15.768Z,69.40
2022-12-04T08:17:42.655Z,65.10
2022-12-04T08:23:08.295Z,61.50
2022-12-04T08:28:35.307Z,62.20
2022-12-04T08:31:21.093Z,65.40
2022-12-04T08:34:06.520Z,66.90
2022-12-04T08:36:49.332Z,69.60
2022-12-04T08:42:15.184Z,66.00
2022-12-04T08:47:40.682Z,68.90
2022-12-04T08:53:06.206Z,60.30
2022-12-04T08:55:49.028Z,63.00
2022-12-04T09:01:15.640Z,62.40
2022-12-04T09:03:59.179Z,70.00
2022-12-04T09:06:42.214Z,64.50
2022-12-04T09:12:07.680Z,63.70
2022-12-04T09:17:36.424Z,59.50
2022-12-04T09:20:19.312Z,64.30
2022-12-04T09:23:04.758Z,65.10
2022-12-04T09:25:48.753Z,64.80
2022-12-04T09:28:31.568Z,66.10
2022-12-04T09:31:14.765Z,63.90
2022-12-04T09:34:01.807Z,60.40
2022-12-04T09:36:44.559Z,65.10
2022-12-04T09:42:35.580Z,62.70
2022-12-04T09:45:22.298Z,57.50
2022-12-04T09:48:08.884Z,64.80
2022-12-04T09:50:53.284Z,63.10
2022-12-04T09:54:00.321Z,66.60
2022-12-04T09:56:48.251Z,64.20
2022-12-04T09:59:33.100Z,63.60
2022-12-04T10:02:16.015Z,62.00
2022-12-04T10:04:58.888Z,60.70
2022-12-04T10:10:40.352Z,65.60
2022-12-04T10:13:53.240Z,64.80
2022-12-04T10:17:01.135Z,66.50
2022-12-04T10:19:46.680Z,66.00
2022-12-04T10:23:00.673Z,67.40
2022-12-04T10:25:43.827Z,61.80
2022-12-04T10:28:39.375Z,62.80
2022-12-04T10:31:23.591Z,70.50
2022-12-04T10:34:16.568Z,65.40
2022-12-04T10:39:51.756Z,62.50
2022-12-04T10:42:45.890Z,74.20
2022-12-04T10:45:28.727Z,64.20
2022-12-04T10:51:03.849Z,66.60
2022-12-04T10:53:49.549Z,66.00
2022-12-04T10:56:32.408Z,67.10
2022-12-04T11:02:06.330Z,61.00
2022-12-04T11:04:58.295Z,66.10
2022-12-04T11:07:48.302Z,68.90
2022-12-04T11:10:43.320Z,67.40
2022-12-04T11:13:26.760Z,71.00
2022-12-04T11:16:37.950Z,65.40
2022-12-04T11:19:29.881Z,69.60
2022-12-04T11:22:15.945Z,69.00
2022-12-04T11:24:59.784Z,70.40
2022-12-04T11:27:50.801Z,66.70
2022-12-04T11:30:38.267Z,63.60
2022-12-04T11:33:30.342Z,68.30
2022-12-04T11:36:19.585Z,68.90
2022-12-04T11:39:11.523Z,68.40
2022-12-04T11:42:02.808Z,66.00
2022-12-04T11:44:56.692Z,70.30
2022-12-04T11:47:39.609Z,73.70
2022-12-04T11:50:37.053Z,71.80
2022-12-04T11:53:37.856Z,68.90
2022-12-04T11:56:29.998Z,68.40
2022-12-04T11:59:31.772Z,74.40
2022-12-04T12:02:15.712Z,71.10
2022-12-04T12:05:15.686Z,75.00
2022-12-04T12:08:21.065Z,67.00
2022-12-04T12:11:29.104Z,67.00
2022-12-04T12:14:30.509Z,67.10
2022-12-04T12:17:21.737Z,68.00
2022-12-04T12:20:31.496Z,71.40
2022-12-04T12:23:30.038Z,72.40
2022-12-04T12:26:15.517Z,71.50
2022-12-04T12:29:14.699Z,64.20
2022-12-04T12:32:04.889Z,70.80
2022-12-04T12:34:49.032Z,71.60
2022-12-04T12:37:46.439Z,74.40
2022-12-04T12:40:35.424Z,68.80
2022-12-04T12:43:21.376Z,67.00
2022-12-04T12:46:23.872Z,75.00
2022-12-04T12:49:17.419Z,71.80
2022-12-04T12:52:13.022Z,66.10
2022-12-04T12:55:02.821Z,70.50
2022-12-04T12:57:52.750Z,74.10
2022-12-04T13:00:45.865Z,71.20
2022-12-04T13:03:34.675Z,65.60
2022-12-04T13:06:22.061Z,69.30
2022-12-04T13:09:17.953Z,72.60
2022-12-04T13:12:08.993Z,77.60
2022-12-04T13:14:52.756Z,64.90
2022-12-04T13:17:39.492Z,71.60
2022-12-04T13:20:28.928Z,71.20
2022-12-04T13:23:45.024Z,74.10
2022-12-04T13:27:03.620Z,74.90
2022-12-04T13:29:58.792Z,73.80
2022-12-04T13:33:15.967Z,69.00
2022-12-04T13:36:16.807Z,71.80
2022-12-04T13:39:34.113Z,66.80
2022-12-04T13:42:26.628Z,66.60
2022-12-04T13:45:29.381Z,72.50
2022-12-04T13:48:13.033Z,61.90
2022-12-04T13:51:14.163Z,67.60
2022-12-04T13:54:21.515Z,71.80
2022-12-04T13:57:20.977Z,73.20
2022-12-04T14:00:27.786Z,66.10
2022-12-04T14:03:38.815Z,72.90
2022-12-04T14:06:31.888Z,77.40
2022-12-04T14:09:23.127Z,73.60
2022-12-04T14:12:09.420Z,72.20
2022-12-04T14:14:56.673Z,72.80
2022-12-04T14:17:40.360Z,75.80
2022-12-04T14:20:32.003Z,73.90
2022-12-04T14:23:22.735Z,71.60
2022-12-04T14:26:20.280Z,73.60
2022-12-04T14:29:25.524Z,70.80
2022-12-04T14:32:15.312Z,71.60
2022-12-04T14:34:58.985Z,67.20
2022-12-04T14:38:06.793Z,70.90
2022-12-04T14:40:52.368Z,73.80
2022-12-04T14:43:41.109Z,74.10
2022-12-04T14:46:46.461Z,75.90
2022-12-04T14:50:16.532Z,67.50
2022-12-04T14:53:12.257Z,73.30
2022-12-04T14:56:18.791Z,77.30
2022-12-04T14:59:11.397Z,76.40
2022-12-04T15:01:55.556Z,77.70
2022-12-04T15:04:45.914Z,78.80
2022-12-04T15:07:31.871Z,81.10
2022-12-04T15:10:46.952Z,78.20
2022-12-04T15:13:32.722Z,72.50
2022-12-04T15:16:23.433Z,76.20
2022-12-04T15:19:17.901Z,77.90
2022-12-04T15:22:00.784Z,79.10
2022-12-04T15:24:43.735Z,78.30
2022-12-04T15:27:32.326Z,79.00
2022-12-04T15:30:21.875Z,78.70
2022-12-04T15:33:10.419Z,81.90
2022-12-04T15:36:22.054Z,73.80
2022-12-04T15:39:05.588Z,73.30
2022-12-04T15:41:48.883Z,74.30
2022-12-04T15:44:34.619Z,82.90
2022-12-04T15:47:25.364Z,77.90
2022-12-04T15:50:17.145Z,72.10
2022-12-04T15:53:15.187Z,74.80
2022-12-04T15:56:07.008Z,76.40
2022-12-04T15:59:02.489Z,79.50
2022-12-04T16:01:45.593Z,76.10
2022-12-04T16:04:29.872Z,87.00
2022-12-04T16:07:24.553Z,82.00
2022-12-04T16:10:23.825Z,81.00
2022-12-04T16:13:06.745Z,82.70
2022-12-04T16:15:49.596Z,80.10
2022-12-04T16:18:32.960Z,78.60
2022-12-04T16:21:18.780Z,79.40
2022-12-04T16:24:03.317Z,80.30
2022-12-04T16:26:46.184Z,80.70
2022-12-04T16:29:30.689Z,84.40
2022-12-04T16:32:18.705Z,72.50
2022-12-04T16:35:01.740Z,74.50
2022-12-04T16:37:44.632Z,82.70
2022-12-04T16:40:27.463Z,82.70
2022-12-04T16:46:00.099Z,78.50
2022-12-04T16:48:43.443Z,85.20
2022-12-04T16:51:27.512Z,76.10
2022-12-04T16:54:12.975Z,76.60
2022-12-04T16:56:55.840Z,76.10
2022-12-04T16:59:39.428Z,76.40
2022-12-04T17:02:27.088Z,74.00
2022-12-04T17:05:29.487Z,78.00
2022-12-04T17:08:12.439Z,78.00
2022-12-04T17:10:55.952Z,70.00
2022-12-04T17:13:38.840Z,65.20
2022-12-04T17:19:05.105Z,66.50
2022-12-04T17:21:47.927Z,69.30
2022-12-04T17:24:30.928Z,75.80
2022-12-04T17:27:14.576Z,84.60
2022-12-04T17:30:00.035Z,86.60
2022-12-04T17:32:43.199Z,74.20
2022-12-04T17:38:11.853Z,84.00
2022-12-04T17:41:01.893Z,86.90
2022-12-04T17:43:44.754Z,80.20
2022-12-04T17:49:10.281Z,81.50
2022-12-04T17:54:37.707Z,78.70
2022-12-04T17:57:22.428Z,73.50
2022-12-04T18:00:06.205Z,68.00
2022-12-04T18:02:55.405Z,77.20
2022-12-04T18:05:38.395Z,70.60
2022-12-04T18:11:05.656Z,86.40
2022-12-04T18:13:59.817Z,79.40
2022-12-04T18:16:52.923Z,75.50
2022-12-04T18:19:36.196Z,80.60
2022-12-04T18:22:19.020Z,86.00
2022-12-04T18:27:45.344Z,74.80
2022-12-04T18:33:14.822Z,74.20
2022-12-04T18:36:00.404Z,78.20
2022-12-04T18:41:27.538Z,76.00
2022-12-04T18:44:10.892Z,81.30
2022-12-04T18:46:53.836Z,76.30
2022-12-04T18:49:36.863Z,75.50
2022-12-04T18:52:19.584Z,70.20
2022-12-04T18:57:45.100Z,85.00
2022-12-04T19:00:27.973Z,76.00
2022-12-04T19:05:53.992Z,82.80
2022-12-04T19:11:25.593Z,79.00
2022-12-04T19:14:20.697Z,77.70
2022-12-04T19:17:06.079Z,77.90
2022-12-04T19:19:49.591Z,81.60
2022-12-04T19:22:32.804Z,74.00
2022-12-04T19:25:16.811Z,83.20
2022-12-04T19:28:00.007Z,85.00
2022-12-04T19:30:42.907Z,74.30
2022-12-04T19:36:12.391Z,82.60
2022-12-04T19:38:57.314Z,73.30
2022-12-04T19:41:41.434Z,84.40
2022-12-04T19:44:47.831Z,83.60
2022-12-04T19:47:28.068Z,74.00
2022-12-04T19:50:11.217Z,88.90
2022-12-04T19:52:54.131Z,79.40
2022-12-04T19:58:19.604Z,72.80
2022-12-04T20:03:46.813Z,81.50
2022-12-04T20:06:34.950Z,75.70
2022-12-04T20:09:20.682Z,75.50
2022-12-04T20:12:03.727Z,75.00
2022-12-04T20:14:46.487Z,83.90
2022-12-04T20:20:12.164Z,72.90
2022-12-04T20:22:55.093Z,76.20
2022-12-04T20:25:38.893Z,80.10
2022-12-04T20:28:22.483Z,80.10
2022-12-04T20:31:26.407Z,79.10
2022-12-04T20:34:13.440Z,80.70
2022-12-04T20:36:56.476Z,75.20
2022-12-04T20:39:39.393Z,76.00
2022-12-04T20:42:22.309Z,79.10
2022-12-04T20:45:05.727Z,80.90
2022-12-04T20:47:50.080Z,80.10
2022-12-04T20:50:32.812Z,78.40
2022-12-04T20:55:58.452Z,74.40
2022-12-04T21:01:25.107Z,72.40
2022-12-04T21:04:08.387Z,74.80
2022-12-04T21:06:51.279Z,75.20
2022-12-04T21:12:41.446Z,80.70
2022-12-04T21:15:44.903Z,78.20
2022-12-04T21:18:27.723Z,72.20
2022-12-04T21:23:53.406Z,84.70
2022-12-04T21:26:36.544Z,73.50
2022-12-04T21:29:19.438Z,77.00
2022-12-04T21:32:04.635Z,79.10
2022-12-04T21:34:48.606Z,75.50
2022-12-04T21:37:31.466Z,79.40
2022-12-04T21:42:57.016Z,72.50
2022-12-04T21:48:22.834Z,69.60
2022-12-04T21:54:05.150Z,87.00
2022-12-04T21:56:48.411Z,69.60
2022-12-04T21:59:31.249Z,76.80
2022-12-04T22:04:58.551Z,77.40
2022-12-04T22:07:41.378Z,82.00
2022-12-04T22:10:24.651Z,81.80
2022-12-04T22:13:08.071Z,73.30
2022-12-04T22:15:50.919Z,77.60
2022-12-04T22:18:34.796Z,77.00
2022-12-04T22:21:17.633Z,79.90
2022-12-04T22:26:43.901Z,81.80
2022-12-04T22:32:29.759Z,83.20
2022-12-04T22:35:12.676Z,78.10
2022-12-04T22:37:55.408Z,75.00
2022-12-04T22:43:21.082Z,77.80
2022-12-04T22:48:47.015Z,73.80
2022-12-04T22:51:30.069Z,78.30
2022-12-04T22:54:14.305Z,75.90
2022-12-04T22:56:58.103Z,84.80
2022-12-04T22:59:41.375Z,80.20
2022-12-04T23:02:26.240Z,79.60
2022-12-04T23:05:09.162Z,85.00
2022-12-04T23:07:52.224Z,79.20
2022-12-04T23:10:38.834Z,83.30
2022-12-04T23:13:21.756Z,73.80
2022-12-04T23:18:53.228Z,76.30
2022-12-04T23:21:36.319Z,78.00
2022-12-04T23:24:19.398Z,73.70
2022-12-04T23:27:02.276Z,75.10
2022-12-04T23:29:53.281Z,68.50
2022-12-04T23:32:36.628Z,72.20
2022-12-04T23:38:02.116Z,73.20
2022-12-04T23:43:27.747Z,73.40
2022-12-04T23:48:55.618Z,75.00
2022-12-04T23:51:38.531Z,77.60
2022-12-04T23:54:21.352Z,77.80
2022-12-04T23:59:46.969Z,77.10
